Weather at Hamilton/Waterdown Heliport

Public forecast

Using degrees Celsius for public forecast. Weather courtesy of forecast.io.

Closest aviation weather report (METAR) to Hamilton/Waterdown Heliport

Closest report is John C. Munro Hamilton International Airport, 9.0 nm (16.8 km) S.

2024/05/20 11:00 (retrieved 1 hour ago)

CYHM 201100Z 03002KT 15SM FEW039 SCT120 BKN250 16/16 A2999 RMK SC2AC1CI4 SLP157 DENSITY ALT 1000FT

Closest aviation forecast (TAF) to Hamilton/Waterdown Heliport

Closest forecast is John C. Munro Hamilton International Airport, 9.0 nm (16.8 km) S.

2024/05/20 12:42 (retrieved 0 seconds ago)

TAF CYHM 201140Z 2012/2112 VRB03KT P6SM BKN250 FM201400 09007KT P6SM SCT050 FM201800 18007KT P6SM BKN050 FM202200 19010KT P6SM SCT050 BECMG 2101/2103 16005KT FM210600 18007KT P6SM BKN100 FM211000 21012KT P6SM BKN070 RMK NXT FCST BY 201800Z